Time;durP1;ratioP1;P1;durP2;ratioP2;P2;SDS_P1;SDS_P2;PMS_P1;PMS_P2;Temp;Humidity;BMP_temperature;BMP_pressure;BME280_temperature;BME280_humidity;BME280_pressure;Samples;Min_cycle;Max_cycle;Signal;HPM_P1;HPM_P2
2022/08/01 00:02:08;;;;;;;6.28;3.10;;;18.20;99.90;;;;;;5052021;28;20455;-69
2022/08/01 00:04:35;;;;;;;8.40;3.22;;;18.20;99.90;;;;;;5034110;28;20672;-68
2022/08/01 00:07:02;;;;;;;4.47;2.63;;;18.30;99.90;;;;;;5034213;28;20076;-68
2022/08/01 00:09:30;;;;;;;4.15;3.08;;;18.20;99.90;;;;;;5052062;28;20053;-68
2022/08/01 00:11:57;;;;;;;6.03;2.92;;;18.20;99.90;;;;;;5034015;28;20061;-68
2022/08/01 00:14:24;;;;;;;7.32;3.42;;;18.20;99.90;;;;;;5051731;28;20564;-68
2022/08/01 00:16:50;;;;;;;6.93;2.75;;;18.20;99.90;;;;;;5034157;28;20563;-68
2022/08/01 00:19:17;;;;;;;4.70;2.67;;;18.20;99.90;;;;;;5035484;28;20049;-68
2022/08/01 00:21:44;;;;;;;4.78;2.72;;;18.20;99.90;;;;;;5055305;28;20551;-69
2022/08/01 00:24:11;;;;;;;4.75;2.50;;;18.20;99.90;;;;;;5055229;28;20056;-69
2022/08/01 00:26:39;;;;;;;4.15;2.30;;;18.20;99.90;;;;;;5055416;28;20049;-68
2022/08/01 00:29:06;;;;;;;4.45;2.17;;;18.20;99.90;;;;;;5055236;28;20053;-68
2022/08/01 00:31:33;;;;;;;3.38;2.10;;;18.20;99.90;;;;;;5037463;28;20057;-68
2022/08/01 00:33:59;;;;;;;3.60;2.40;;;18.20;99.90;;;;;;5055680;28;20103;-67
2022/08/01 00:36:26;;;;;;;3.58;2.40;;;18.20;99.90;;;;;;5037731;28;20135;-66
2022/08/01 00:38:53;;;;;;;10.63;2.90;;;18.20;99.90;;;;;;5037016;28;20547;-67
2022/08/01 00:41:20;;;;;;;5.53;2.85;;;18.20;99.90;;;;;;5037673;28;20107;-68
2022/08/01 00:43:48;;;;;;;4.20;3.10;;;18.20;99.90;;;;;;5054421;28;20065;-68
2022/08/01 00:46:15;;;;;;;6.47;3.50;;;18.20;99.90;;;;;;5053933;28;20088;-68
2022/08/01 00:48:42;;;;;;;4.63;3.15;;;18.20;99.90;;;;;;5036928;28;20056;-67
2022/08/01 00:51:09;;;;;;;5.65;3.88;;;18.20;99.90;;;;;;5037121;28;20053;-68
2022/08/01 00:53:36;;;;;;;5.82;3.30;;;18.20;99.90;;;;;;5054608;28;20060;-67
2022/08/01 00:56:04;;;;;;;5.93;3.90;;;18.20;99.90;;;;;;5037057;28;20082;-67
2022/08/01 00:58:32;;;;;;;6.25;3.92;;;18.20;99.90;;;;;;5054637;28;20045;-68
2022/08/01 01:01:00;;;;;;;7.35;4.20;;;18.10;99.90;;;;;;5036775;28;20076;-68
2022/08/01 01:03:27;;;;;;;7.95;3.90;;;18.20;99.90;;;;;;5054514;28;20064;-68
2022/08/01 01:06:06;;;;;;;9.07;4.22;;;18.10;99.90;;;;;;5054718;28;20053;-68
2022/08/01 01:08:40;;;;;;;5.10;3.53;;;18.10;99.90;;;;;;5054945;28;20045;-67
2022/08/01 01:11:13;;;;;;;10.77;3.58;;;18.10;99.90;;;;;;5037112;28;20061;-67
2022/08/01 01:13:46;;;;;;;6.80;3.30;;;18.10;99.90;;;;;;5036698;28;20084;-67
2022/08/01 01:16:18;;;;;;;5.32;2.95;;;18.00;99.90;;;;;;5054365;28;20098;-68
2022/08/01 01:18:48;;;;;;;6.40;3.40;;;18.00;99.90;;;;;;5054468;28;20052;-68
2022/08/01 01:21:40;;;;;;;6.67;3.07;;;18.00;99.90;;;;;;5036187;28;20057;-68
2022/08/01 01:24:18;;;;;;;6.05;3.35;;;18.00;99.90;;;;;;5017419;28;20691;-66
2022/08/01 01:26:53;;;;;;;10.65;3.55;;;18.00;99.90;;;;;;5016836;28;20084;-68
2022/08/01 01:29:24;;;;;;;8.05;2.75;;;18.00;99.90;;;;;;5033984;28;20136;-67
2022/08/01 01:32:05;;;;;;;5.43;2.78;;;17.90;99.90;;;;;;5033217;28;20053;-67
2022/08/01 01:34:36;;;;;;;7.20;2.90;;;17.90;99.90;;;;;;5016334;28;20057;-69
2022/08/01 01:37:05;;;;;;;5.95;2.38;;;17.90;99.90;;;;;;5023193;28;20102;-67
2022/08/01 01:39:34;;;;;;;7.95;2.65;;;17.90;99.90;;;;;;5053595;28;20041;-68
2022/08/01 01:42:03;;;;;;;6.78;2.60;;;17.90;99.90;;;;;;5036239;28;20049;-68
2022/08/01 01:44:32;;;;;;;10.80;3.53;;;17.80;99.90;;;;;;5036590;28;20489;-68
2022/08/01 01:47:01;;;;;;;6.72;2.47;;;17.80;99.90;;;;;;5054025;28;20045;-67
2022/08/01 01:49:29;;;;;;;5.68;3.10;;;17.80;99.90;;;;;;5036058;28;20455;-67
2022/08/01 01:51:58;;;;;;;7.15;2.35;;;17.80;99.90;;;;;;5053852;28;20455;-68
2022/08/01 01:54:30;;;;;;;7.65;3.10;;;17.70;99.90;;;;;;5053609;28;20174;-68
2022/08/01 01:57:00;;;;;;;4.93;2.40;;;17.70;99.90;;;;;;5035891;28;20057;-68
2022/08/01 01:59:29;;;;;;;11.52;2.42;;;17.70;99.90;;;;;;5053927;28;20056;-68
2022/08/01 02:02:02;;;;;;;3.97;1.55;;;17.70;99.90;;;;;;5053604;28;20049;-68
2022/08/01 02:04:30;;;;;;;7.75;2.28;;;17.60;99.90;;;;;;5035536;28;20053;-69
2022/08/01 02:06:58;;;;;;;6.53;2.30;;;17.60;99.90;;;;;;5053226;28;20045;-67
2022/08/01 02:09:28;;;;;;;4.25;2.00;;;17.60;99.90;;;;;;5035271;28;20053;-69
2022/08/01 02:11:56;;;;;;;5.13;2.10;;;17.60;99.90;;;;;;5053823;28;20084;-68
2022/08/01 02:14:24;;;;;;;4.85;2.50;;;17.60;99.90;;;;;;5035255;28;20092;-67
2022/08/01 02:16:51;;;;;;;13.35;2.45;;;17.60;99.90;;;;;;5053122;28;20093;-66
2022/08/01 02:19:20;;;;;;;11.63;2.10;;;17.50;99.90;;;;;;5035723;28;20060;-68
2022/08/01 02:21:50;;;;;;;5.32;1.85;;;17.60;99.90;;;;;;5052899;28;20053;-68
2022/08/01 02:24:24;;;;;;;7.95;2.22;;;17.50;99.90;;;;;;5052738;28;20049;-67
2022/08/01 02:26:55;;;;;;;10.32;2.72;;;17.50;99.90;;;;;;5053493;28;20053;-68
2022/08/01 02:29:28;;;;;;;8.48;2.97;;;17.50;99.90;;;;;;5053304;28;20053;-68
2022/08/01 02:31:55;;;;;;;12.05;3.25;;;17.50;99.90;;;;;;5035184;28;20465;-67
2022/08/01 02:34:31;;;;;;;8.40;3.28;;;17.40;99.90;;;;;;5035171;28;20052;-68
2022/08/01 02:36:59;;;;;;;11.95;3.88;;;17.40;99.90;;;;;;5053039;28;20084;-68
2022/08/01 02:39:29;;;;;;;7.43;3.53;;;17.40;99.90;;;;;;5035232;28;20492;-68
2022/08/01 02:41:59;;;;;;;10.67;4.00;;;17.40;99.90;;;;;;5034766;28;20440;-68
2022/08/01 02:44:29;;;;;;;;;;;17.30;99.90;;;;;;5035422;28;20110;-68
2022/08/01 02:47:02;;;;;;;13.40;3.78;;;17.30;99.90;;;;;;5051934;28;19951;-68
2022/08/01 02:49:32;;;;;;;15.32;3.72;;;17.20;99.90;;;;;;5052884;28;20048;-67
2022/08/01 02:51:59;;;;;;;;;;;17.30;99.90;;;;;;5052546;28;20063;-68
2022/08/01 02:54:27;;;;;;;14.98;3.83;;;17.30;99.90;;;;;;5035390;28;20327;-68
2022/08/01 02:56:56;;;;;;;9.10;3.55;;;17.30;99.90;;;;;;5034820;28;20079;-68
2022/08/01 02:59:25;;;;;;;11.10;3.88;;;17.30;99.90;;;;;;5034701;28;20052;-68
2022/08/01 03:01:54;;;;;;;11.00;3.70;;;17.20;99.90;;;;;;5035034;28;20110;-68
2022/08/01 03:04:22;;;;;;;9.65;3.63;;;17.20;99.90;;;;;;5035179;28;20064;-68
2022/08/01 03:06:52;;;;;;;12.30;4.20;;;17.20;99.90;;;;;;5034237;28;20049;-69
2022/08/01 03:09:20;;;;;;;9.25;3.35;;;17.20;99.90;;;;;;5052976;28;20083;-67
2022/08/01 03:11:48;;;;;;;8.98;3.45;;;17.20;99.90;;;;;;5052079;28;20493;-68
2022/08/01 03:14:16;;;;;;;9.77;2.97;;;17.20;99.90;;;;;;5052483;28;20053;-68
2022/08/01 03:16:45;;;;;;;8.20;3.42;;;17.20;99.90;;;;;;5052607;28;20076;-68
2022/08/01 03:19:14;;;;;;;11.65;3.03;;;17.10;99.90;;;;;;5052538;28;20049;-66
2022/08/01 03:21:44;;;;;;;8.20;3.28;;;17.10;99.90;;;;;;5034172;28;20071;-68
2022/08/01 03:24:13;;;;;;;10.67;3.43;;;17.10;99.90;;;;;;5052487;28;20450;-67
2022/08/01 03:26:42;;;;;;;9.30;2.92;;;17.10;99.90;;;;;;5033820;28;20061;-68
2022/08/01 03:29:13;;;;;;;11.40;3.45;;;17.00;99.90;;;;;;5052536;28;20053;-67
2022/08/01 03:31:44;;;;;;;10.30;3.33;;;17.00;99.90;;;;;;5034555;28;20049;-67
2022/08/01 03:34:11;;;;;;;9.32;3.05;;;17.00;99.90;;;;;;5033820;28;20053;-67
2022/08/01 03:36:46;;;;;;;12.13;3.35;;;17.00;99.90;;;;;;5034697;28;20122;-67
2022/08/01 03:39:17;;;;;;;9.68;3.55;;;16.90;99.90;;;;;;5034239;28;20045;-67
2022/08/01 03:41:49;;;;;;;11.05;3.22;;;16.90;99.90;;;;;;5051994;28;20516;-68
2022/08/01 03:44:21;;;;;;;8.57;3.63;;;16.90;99.90;;;;;;5052594;28;20106;-68
2022/08/01 03:46:54;;;;;;;10.57;3.50;;;16.90;99.90;;;;;;5052130;28;20106;-68
2022/08/01 03:49:24;;;;;;;14.48;4.05;;;16.90;99.90;;;;;;5034090;28;20448;-69
2022/08/01 03:51:53;;;;;;;6.53;2.55;;;16.90;99.90;;;;;;5027273;28;20073;-68
2022/08/01 03:54:25;;;;;;;8.55;3.03;;;17.10;99.90;;;;;;5031327;28;20045;-68
2022/08/01 03:56:53;;;;;;;12.38;3.28;;;17.30;99.90;;;;;;5033784;28;20091;-68
2022/08/01 03:59:21;;;;;;;6.95;2.90;;;17.30;99.90;;;;;;5048249;28;20071;-68
2022/08/01 04:01:48;;;;;;;8.02;2.80;;;17.40;99.90;;;;;;5035659;28;20594;-71
2022/08/01 04:04:16;;;;;;;8.88;3.15;;;17.50;99.90;;;;;;5021488;28;20115;-68
2022/08/01 04:06:44;;;;;;;10.00;3.10;;;17.70;99.90;;;;;;5036798;28;20095;-68
2022/08/01 04:09:11;;;;;;;11.95;3.38;;;17.70;99.90;;;;;;5034058;28;20576;-67
2022/08/01 04:11:40;;;;;;;15.77;3.40;;;17.90;99.90;;;;;;5017187;28;20386;-68
2022/08/01 04:14:07;;;;;;;9.98;3.63;;;17.80;99.90;;;;;;5019538;28;20069;-68
2022/08/01 04:16:34;;;;;;;10.75;3.40;;;18.00;99.90;;;;;;5020102;28;20057;-67
2022/08/01 04:19:01;;;;;;;8.70;2.67;;;18.20;99.90;;;;;;5024127;28;20454;-68
2022/08/01 04:21:31;;;;;;;9.82;2.85;;;18.30;99.90;;;;;;5020626;28;20484;-68
2022/08/01 04:24:03;;;;;;;6.80;3.30;;;18.40;99.90;;;;;;5035975;28;20049;-67
2022/08/01 04:26:31;;;;;;;11.07;2.80;;;18.40;99.90;;;;;;5016976;28;20045;-67
2022/08/01 04:29:01;;;;;;;6.22;2.42;;;18.50;99.90;;;;;;5016452;28;20053;-68
2022/08/01 04:31:29;;;;;;;22.98;3.60;;;18.40;99.90;;;;;;5035159;28;20130;-68
2022/08/01 04:33:59;;;;;;;9.55;3.45;;;18.50;99.90;;;;;;5034678;28;20073;-68
2022/08/01 04:36:28;;;;;;;6.78;2.55;;;18.50;99.90;;;;;;5015838;28;20073;-66
2022/08/01 04:39:00;;;;;;;7.43;2.70;;;18.40;99.90;;;;;;5037214;28;20489;-68
2022/08/01 04:41:28;;;;;;;8.90;3.63;;;18.30;99.90;;;;;;5033111;28;20057;-69
2022/08/01 04:43:55;;;;;;;15.70;3.60;;;18.10;99.90;;;;;;5034455;28;20123;-69
2022/08/01 04:46:23;;;;;;;10.48;3.53;;;18.00;99.90;;;;;;5022447;28;20060;-68
2022/08/01 04:48:51;;;;;;;12.40;2.95;;;17.80;99.90;;;;;;5035572;28;20048;-69
2022/08/01 04:51:21;;;;;;;12.35;3.03;;;17.60;99.90;;;;;;5043795;28;20464;-68
2022/08/01 04:53:50;;;;;;;13.57;3.17;;;17.60;99.90;;;;;;5038578;28;20126;-67
2022/08/01 04:56:18;;;;;;;18.85;4.53;;;17.50;99.90;;;;;;5018276;28;20057;-67
2022/08/01 04:58:45;;;;;;;9.85;3.70;;;17.50;99.90;;;;;;5036275;28;20405;-67
2022/08/01 05:01:12;;;;;;;14.68;3.83;;;17.40;99.90;;;;;;5034238;28;20088;-68
2022/08/01 05:03:41;;;;;;;15.38;3.90;;;17.40;99.90;;;;;;5037407;28;20048;-69
2022/08/01 05:06:07;;;;;;;18.00;3.88;;;17.40;99.90;;;;;;5018167;28;20459;-68
2022/08/01 05:08:35;;;;;;;14.15;4.30;;;17.40;99.90;;;;;;5033112;28;20068;-67
2022/08/01 05:11:02;;;;;;;18.73;3.83;;;17.40;99.90;;;;;;5032020;28;20112;-67
2022/08/01 05:13:30;;;;;;;13.40;3.55;;;17.40;99.90;;;;;;5032678;28;20049;-66
2022/08/01 05:15:57;;;;;;;13.00;3.75;;;17.40;99.90;;;;;;5017572;28;20070;-69
2022/08/01 05:18:23;;;;;;;9.63;3.35;;;17.40;99.90;;;;;;5015097;28;20085;-68
2022/08/01 05:20:52;;;;;;;19.42;4.28;;;17.40;99.90;;;;;;5034470;28;20107;-67
2022/08/01 05:23:18;;;;;;;14.45;3.85;;;17.40;99.90;;;;;;5015924;28;20049;-66
2022/08/01 05:25:45;;;;;;;12.75;3.47;;;17.40;99.90;;;;;;5033442;28;20107;-67
2022/08/01 05:28:12;;;;;;;13.05;3.75;;;17.30;99.90;;;;;;5014464;28;20076;-68
2022/08/01 05:30:40;;;;;;;17.70;3.80;;;17.40;99.90;;;;;;5034347;28;20049;-68
2022/08/01 05:33:07;;;;;;;17.10;4.38;;;17.30;99.90;;;;;;5032773;28;20091;-67
2022/08/01 05:35:34;;;;;;;14.18;3.38;;;17.30;99.90;;;;;;5014431;28;20099;-68
2022/08/01 05:38:02;;;;;;;13.40;3.97;;;17.30;99.90;;;;;;5017621;28;20099;-67
2022/08/01 05:40:29;;;;;;;16.52;4.03;;;17.30;99.90;;;;;;5032404;28;20077;-69
2022/08/01 05:42:55;;;;;;;15.60;3.90;;;17.30;99.90;;;;;;5014476;28;20488;-68
2022/08/01 05:45:22;;;;;;;10.70;3.58;;;17.30;99.90;;;;;;5034660;28;20050;-68
2022/08/01 05:47:49;;;;;;;14.95;3.85;;;17.30;99.90;;;;;;5031815;28;20436;-67
2022/08/01 05:50:16;;;;;;;14.60;4.47;;;17.40;99.90;;;;;;5032288;28;20563;-68
2022/08/01 05:52:43;;;;;;;10.95;3.35;;;17.40;99.90;;;;;;5032910;28;20057;-67
2022/08/01 05:55:11;;;;;;;11.80;3.25;;;17.30;99.90;;;;;;5033494;28;20092;-67
2022/08/01 05:57:38;;;;;;;15.43;4.55;;;17.30;99.90;;;;;;5043316;28;20057;-67
2022/08/01 06:00:07;;;;;;;14.70;4.85;;;17.30;99.90;;;;;;5015176;28;20053;-67
2022/08/01 06:02:33;;;;;;;15.27;3.15;;;17.30;99.90;;;;;;5031876;28;20049;-68
2022/08/01 06:05:00;;;;;;;15.63;4.05;;;17.30;99.90;;;;;;5014474;28;20049;-66
2022/08/01 06:07:27;;;;;;;17.23;4.50;;;17.40;99.90;;;;;;5032573;28;20111;-68
2022/08/01 06:09:54;;;;;;;24.27;3.90;;;17.40;99.90;;;;;;5013937;28;20085;-68
2022/08/01 06:12:22;;;;;;;13.95;3.83;;;17.40;99.90;;;;;;5013955;28;20115;-68
2022/08/01 06:14:49;;;;;;;13.15;3.47;;;17.40;99.90;;;;;;5031985;28;20081;-67
2022/08/01 06:17:16;;;;;;;12.43;3.78;;;17.40;99.90;;;;;;5030194;28;20107;-68
2022/08/01 06:19:42;;;;;;;12.45;3.90;;;17.40;99.90;;;;;;5031499;28;20485;-66
2022/08/01 06:22:09;;;;;;;13.18;4.07;;;17.40;99.90;;;;;;5014251;28;20049;-67
2022/08/01 06:24:36;;;;;;;18.05;3.95;;;17.50;99.90;;;;;;5013648;28;20045;-68
2022/08/01 06:27:03;;;;;;;13.27;3.88;;;17.50;99.90;;;;;;5037533;28;20106;-67
2022/08/01 06:29:32;;;;;;;13.00;3.50;;;17.50;99.90;;;;;;5034719;28;20045;-67
2022/08/01 06:31:59;;;;;;;11.50;2.80;;;17.50;99.90;;;;;;5031302;28;20100;-66
2022/08/01 06:34:26;;;;;;;13.60;3.42;;;17.60;99.90;;;;;;5014014;28;20049;-67
2022/08/01 06:36:53;;;;;;;13.68;3.88;;;17.60;99.90;;;;;;5031690;28;20395;-67
2022/08/01 06:39:20;;;;;;;14.55;3.53;;;17.60;99.90;;;;;;5031737;28;20049;-67
2022/08/01 06:41:47;;;;;;;20.23;3.67;;;17.60;99.90;;;;;;5033618;28;20123;-67
2022/08/01 06:44:14;;;;;;;8.63;2.97;;;17.60;99.90;;;;;;5015567;28;20139;-68
2022/08/01 06:46:42;;;;;;;14.27;3.53;;;17.70;99.90;;;;;;5031427;28;20045;-67
2022/08/01 06:49:09;;;;;;;22.13;3.58;;;17.80;99.90;;;;;;5013997;28;20053;-68
2022/08/01 06:51:35;;;;;;;12.38;3.78;;;17.90;99.90;;;;;;5013179;28;20103;-67
2022/08/01 06:54:02;;;;;;;16.35;3.33;;;18.00;99.90;;;;;;5032832;28;20046;-68
2022/08/01 06:56:29;;;;;;;12.52;4.07;;;18.00;99.90;;;;;;5013806;28;20103;-69
2022/08/01 06:59:00;;;;;;;12.73;3.63;;;18.20;99.90;;;;;;5031992;28;20124;-68
2022/08/01 07:01:27;;;;;;;10.23;3.22;;;18.30;99.90;;;;;;5032422;28;20124;-67
2022/08/01 07:03:55;;;;;;;10.30;3.40;;;18.50;99.90;;;;;;5031446;28;20084;-68
2022/08/01 07:06:24;;;;;;;11.57;2.85;;;18.80;99.90;;;;;;5030300;28;20138;-68
2022/08/01 07:08:51;;;;;;;15.38;3.45;;;19.00;99.90;;;;;;5015696;28;20493;-67
2022/08/01 07:11:18;;;;;;;8.90;3.33;;;19.20;99.90;;;;;;5013549;28;20099;-68
2022/08/01 07:13:46;;;;;;;12.52;2.70;;;19.40;99.90;;;;;;5030204;28;20559;-68
2022/08/01 07:16:13;;;;;;;15.32;3.78;;;19.70;99.90;;;;;;5012519;28;20616;-68
2022/08/01 07:18:40;;;;;;;9.30;3.05;;;19.90;99.90;;;;;;5030661;28;20045;-67
2022/08/01 07:21:08;;;;;;;10.73;2.67;;;20.10;99.90;;;;;;5030964;28;20489;-68
2022/08/01 07:23:35;;;;;;;12.05;2.85;;;20.40;99.90;;;;;;5022031;28;20404;-68
2022/08/01 07:26:04;;;;;;;8.45;2.28;;;20.70;99.90;;;;;;5016068;28;20049;-68
2022/08/01 07:28:31;;;;;;;6.40;2.13;;;21.30;99.90;;;;;;5015721;28;20046;-68
2022/08/01 07:30:58;;;;;;;10.18;2.38;;;21.70;99.90;;;;;;5017407;28;20095;-67
2022/08/01 07:33:25;;;;;;;8.60;3.20;;;21.90;99.90;;;;;;5034860;28;20095;-67
2022/08/01 07:35:52;;;;;;;10.73;3.10;;;22.10;99.90;;;;;;5017039;28;20582;-68
2022/08/01 07:38:20;;;;;;;11.82;2.45;;;22.50;99.90;;;;;;5039789;28;20113;-68
2022/08/01 07:40:47;;;;;;;7.88;2.50;;;23.00;99.90;;;;;;5027097;28;20488;-69
2022/08/01 07:43:14;;;;;;;11.02;2.78;;;23.60;99.90;;;;;;5056534;28;20056;-68
2022/08/01 07:45:42;;;;;;;9.05;2.55;;;24.10;99.90;;;;;;5056257;28;20393;-68
2022/08/01 07:48:09;;;;;;;9.00;2.30;;;24.60;99.90;;;;;;5055626;28;20551;-68
2022/08/01 07:50:36;;;;;;;9.93;2.22;;;25.10;99.90;;;;;;5056097;28;20489;-69
2022/08/01 07:53:03;;;;;;;7.53;1.73;;;25.50;99.90;;;;;;5056360;28;20103;-68
2022/08/01 07:55:31;;;;;;;13.23;2.25;;;25.60;99.90;;;;;;5037737;28;20048;-68
2022/08/01 07:57:58;;;;;;;8.38;2.35;;;25.70;99.80;;;;;;5033591;28;20087;-68
2022/08/01 08:00:25;;;;;;;6.18;2.10;;;25.90;98.90;;;;;;5055301;28;20041;-68
2022/08/01 08:02:52;;;;;;;7.45;2.10;;;26.30;99.10;;;;;;5035629;28;20171;-69
2022/08/01 08:05:19;;;;;;;5.82;1.77;;;26.70;98.40;;;;;;5036738;28;20137;-69
2022/08/01 08:07:46;;;;;;;6.82;1.88;;;26.40;97.30;;;;;;5038161;28;20053;-69
2022/08/01 08:10:13;;;;;;;9.77;2.00;;;26.50;97.10;;;;;;5037358;28;20088;-68
2022/08/01 08:12:41;;;;;;;6.95;2.05;;;26.70;97.00;;;;;;5037812;28;20064;-69
2022/08/01 08:15:08;;;;;;;10.10;1.88;;;26.60;96.20;;;;;;5037580;28;20060;-68
2022/08/01 08:17:35;;;;;;;5.90;1.80;;;26.40;96.40;;;;;;5037915;28;20064;-68
2022/08/01 08:20:02;;;;;;;6.93;2.03;;;26.50;95.80;;;;;;5054411;28;20041;-68
2022/08/01 08:22:29;;;;;;;8.00;2.10;;;26.80;95.80;;;;;;5054267;28;20878;-69
2022/08/01 08:24:56;;;;;;;5.80;1.60;;;27.00;95.40;;;;;;5037230;28;20098;-69
2022/08/01 08:27:23;;;;;;;8.07;2.17;;;27.20;95.10;;;;;;5037642;28;20099;-69
2022/08/01 08:29:51;;;;;;;12.50;1.75;;;27.40;94.60;;;;;;5036875;28;20056;-70
2022/08/01 08:32:18;;;;;;;7.28;1.67;;;27.50;94.20;;;;;;5037724;28;20118;-70
2022/08/01 08:34:45;;;;;;;13.43;2.45;;;27.50;94.10;;;;;;5055074;28;20049;-69
2022/08/01 08:37:12;;;;;;;8.43;2.08;;;27.40;93.60;;;;;;5054879;28;20057;-70
2022/08/01 08:39:39;;;;;;;7.05;2.03;;;27.60;93.80;;;;;;5036615;28;20095;-69
2022/08/01 08:42:08;;;;;;;5.57;2.10;;;27.80;93.70;;;;;;5055464;28;20057;-70
2022/08/01 08:44:35;;;;;;;7.85;1.85;;;28.00;92.90;;;;;;5054527;28;20041;-68
2022/08/01 08:47:06;;;;;;;5.65;1.65;;;28.00;92.30;;;;;;5036954;28;20049;-69
2022/08/01 08:49:33;;;;;;;6.85;1.90;;;27.70;91.40;;;;;;5037354;28;20511;-69
2022/08/01 08:52:01;;;;;;;6.75;1.27;;;27.50;92.20;;;;;;5054732;28;20106;-69
2022/08/01 08:54:30;;;;;;;6.10;1.50;;;27.60;91.70;;;;;;5037152;28;20098;-69
2022/08/01 08:56:58;;;;;;;6.17;1.87;;;27.90;91.30;;;;;;5054679;28;20041;-70
2022/08/01 08:59:26;;;;;;;5.57;1.60;;;28.30;91.30;;;;;;5036548;28;20049;-69
2022/08/01 09:01:53;;;;;;;8.20;1.60;;;28.30;91.50;;;;;;5054903;28;20085;-70
2022/08/01 09:04:22;;;;;;;7.80;2.20;;;28.30;91.00;;;;;;5054360;28;20126;-69
2022/08/01 09:06:49;;;;;;;6.00;1.70;;;28.30;90.70;;;;;;5036507;28;20061;-70
2022/08/01 09:09:16;;;;;;;8.70;1.92;;;28.40;90.80;;;;;;5036619;28;20492;-68
2022/08/01 09:11:43;;;;;;;6.30;1.67;;;28.10;90.30;;;;;;5054067;28;20452;-69
2022/08/01 09:14:13;;;;;;;7.40;2.10;;;27.90;90.40;;;;;;5049080;28;20106;-69
2022/08/01 09:16:42;;;;;;;8.27;2.10;;;27.80;90.10;;;;;;5054335;28;20102;-69
2022/08/01 09:19:12;;;;;;;5.55;2.03;;;27.10;90.10;;;;;;5039718;28;20061;-69
2022/08/01 09:21:41;;;;;;;8.60;1.73;;;27.30;90.20;;;;;;5032845;28;20559;-68
2022/08/01 09:24:15;;;;;;;5.00;1.70;;;27.30;89.80;;;;;;5045078;28;20152;-69
2022/08/01 09:26:44;;;;;;;4.63;1.70;;;26.80;90.00;;;;;;5034370;28;20128;-69
2022/08/01 09:29:20;;;;;;;5.03;1.73;;;26.70;89.10;;;;;;5037122;28;20045;-69
2022/08/01 09:31:49;;;;;;;6.90;1.80;;;27.10;88.70;;;;;;5017740;28;20516;-69
2022/08/01 09:34:17;;;;;;;6.65;1.55;;;27.30;89.10;;;;;;5015903;28;20049;-70
2022/08/01 09:36:52;;;;;;;7.72;1.25;;;27.80;88.40;;;;;;5032901;28;20490;-70
2022/08/01 09:39:20;;;;;;;6.60;1.55;;;28.20;85.50;;;;;;5033107;28;20049;-70
2022/08/01 09:41:47;;;;;;;8.05;1.60;;;28.50;86.80;;;;;;5015543;28;20103;-69
2022/08/01 09:44:17;;;;;;;6.57;2.22;;;28.70;85.30;;;;;;5026051;28;20048;-68
2022/08/01 09:46:51;;;;;;;;;;;28.40;85.30;;;;;;5020023;28;20132;-69
2022/08/01 09:49:29;;;;;;;6.28;1.70;;;27.90;84.20;;;;;;5016474;28;19921;-70
2022/08/01 09:51:58;;;;;;;8.35;1.40;;;28.00;83.60;;;;;;5032973;28;20107;-70
2022/08/01 09:54:33;;;;;;;8.30;1.58;;;28.40;85.10;;;;;;5015862;28;20448;-70
2022/08/01 09:57:12;;;;;;;6.10;1.52;;;28.70;83.00;;;;;;5033649;28;20536;-69
2022/08/01 09:59:42;;;;;;;5.60;1.45;;;28.80;81.80;;;;;;5016271;28;20093;-69
2022/08/01 10:02:10;;;;;;;4.13;1.45;;;28.30;83.30;;;;;;5033451;28;20054;-70
2022/08/01 10:04:37;;;;;;;7.18;1.58;;;28.40;83.20;;;;;;5016177;28;20144;-69
2022/08/01 10:07:08;;;;;;;6.25;1.30;;;28.80;83.40;;;;;;5053091;28;20474;-69
2022/08/01 10:09:37;;;;;;;3.33;1.35;;;29.30;78.90;;;;;;5053012;28;20041;-70
2022/08/01 10:12:05;;;;;;;5.45;1.40;;;29.80;82.00;;;;;;5035860;28;20045;-69
2022/08/01 10:14:33;;;;;;;6.20;1.63;;;29.80;80.70;;;;;;5035626;28;20052;-70
2022/08/01 10:17:01;;;;;;;7.20;1.83;;;29.90;80.40;;;;;;5034904;28;20052;-70
2022/08/01 10:19:30;;;;;;;8.35;1.73;;;29.70;80.80;;;;;;5035191;28;20135;-70
2022/08/01 10:21:58;;;;;;;7.32;1.50;;;29.90;79.90;;;;;;5034168;28;20048;-69
2022/08/01 10:24:28;;;;;;;9.20;1.67;;;29.70;79.30;;;;;;5034932;28;20070;-69
2022/08/01 10:27:02;;;;;;;4.13;1.30;;;29.40;80.00;;;;;;5035103;28;20051;-70
2022/08/01 10:29:32;;;;;;;6.72;1.85;;;29.40;79.70;;;;;;5034403;28;20564;-70
2022/08/01 10:31:59;;;;;;;6.25;1.33;;;29.30;79.80;;;;;;5035132;28;20111;-70
2022/08/01 10:34:27;;;;;;;8.55;1.65;;;29.80;79.80;;;;;;5053030;28;20505;-70
2022/08/01 10:36:54;;;;;;;6.15;1.75;;;29.90;79.10;;;;;;5034851;28;20092;-69
2022/08/01 10:39:22;;;;;;;4.07;1.20;;;29.80;77.70;;;;;;5052928;28;20547;-70
2022/08/01 10:41:50;;;;;;;7.65;1.73;;;29.80;77.90;;;;;;5052772;28;20463;-69
2022/08/01 10:44:18;;;;;;;7.90;1.67;;;30.30;76.60;;;;;;5052164;28;20455;-69
2022/08/01 10:46:50;;;;;;;4.55;1.27;;;30.40;76.90;;;;;;5034912;28;20497;-69
2022/08/01 10:49:21;;;;;;;6.80;1.40;;;29.90;75.20;;;;;;5035471;28;20052;-70
2022/08/01 10:51:48;;;;;;;4.93;1.83;;;28.90;76.70;;;;;;5034975;28;20056;-70
2022/08/01 10:54:15;;;;;;;6.85;1.60;;;28.60;77.50;;;;;;5052748;28;20053;-70
2022/08/01 10:56:45;;;;;;;11.10;1.52;;;28.30;77.60;;;;;;5034869;28;20136;-70
2022/08/01 10:59:22;;;;;;;3.78;1.10;;;28.20;77.50;;;;;;5052208;28;20053;-69
2022/08/01 11:01:58;;;;;;;3.63;1.33;;;28.20;76.60;;;;;;5032873;28;20091;-69
2022/08/01 11:04:34;;;;;;;5.90;1.45;;;28.90;75.90;;;;;;5014371;28;20053;-70
2022/08/01 11:07:06;;;;;;;7.97;1.30;;;29.30;77.10;;;;;;5051571;28;20381;-70
2022/08/01 11:09:40;;;;;;;8.32;1.70;;;29.50;75.70;;;;;;5052918;28;20049;-70
2022/08/01 11:12:10;;;;;;;3.70;1.35;;;29.70;73.40;;;;;;5034583;28;20102;-70
2022/08/01 11:15:10;;;;;;;5.45;1.45;;;29.50;74.60;;;;;;5034563;28;20053;-70
2022/08/01 11:17:41;;;;;;;6.30;1.42;;;29.20;75.00;;;;;;5050640;28;20448;-69
2022/08/01 11:20:10;;;;;;;4.30;1.52;;;29.10;73.70;;;;;;5034592;28;20444;-68
2022/08/01 11:23:12;;;;;;;6.78;1.27;;;28.70;74.70;;;;;;5034286;28;20057;-70
2022/08/01 11:26:08;;;;;;;6.00;1.70;;;28.40;73.60;;;;;;5031563;28;20505;-70
2022/08/01 11:28:35;;;;;;;5.82;1.67;;;28.40;76.30;;;;;;5015184;28;20472;-69
2022/08/01 11:31:29;;;;;;;6.85;1.50;;;28.60;75.80;;;;;;5037421;28;20551;-70
2022/08/01 11:33:58;;;;;;;5.10;1.63;;;29.00;75.40;;;;;;5032172;28;20108;-70
2022/08/01 11:36:25;;;;;;;4.50;1.33;;;29.00;74.40;;;;;;5014577;28;20092;-70
2022/08/01 11:39:14;;;;;;;12.00;2.20;;;29.00;74.80;;;;;;5014995;28;20111;-69
2022/08/01 11:41:42;;;;;;;7.93;1.50;;;29.30;74.40;;;;;;5015109;28;20115;-70
2022/08/01 11:44:14;;;;;;;4.18;1.30;;;29.40;74.10;;;;;;5050842;28;20048;-70
2022/08/01 11:46:52;;;;;;;6.47;1.50;;;29.70;73.30;;;;;;5034175;28;20057;-70
2022/08/01 11:49:45;;;;;;;4.43;1.40;;;29.80;71.40;;;;;;5052196;28;20452;-70
2022/08/01 11:52:14;;;;;;;6.53;1.60;;;29.40;69.80;;;;;;5034729;28;20135;-70
2022/08/01 11:54:44;;;;;;;4.90;1.17;;;29.50;72.40;;;;;;5051296;28;20519;-70
2022/08/01 11:57:13;;;;;;;6.90;1.70;;;29.80;72.00;;;;;;5033482;28;20104;-70
2022/08/01 11:59:45;;;;;;;4.75;1.10;;;29.90;71.50;;;;;;5052560;28;20118;-70
2022/08/01 12:02:23;;;;;;;5.88;1.25;;;30.00;71.70;;;;;;5033721;28;20057;-70
2022/08/01 12:04:54;;;;;;;5.47;1.65;;;29.90;70.50;;;;;;5041641;28;20123;-70
2022/08/01 12:07:21;;;;;;;3.60;1.05;;;30.10;69.40;;;;;;5051522;28;20057;-70
2022/08/01 12:09:49;;;;;;;6.60;1.20;;;30.20;70.10;;;;;;5034094;28;20049;-69
2022/08/01 12:12:18;;;;;;;2.63;1.15;;;30.20;69.60;;;;;;5034433;28;20085;-70
2022/08/01 12:14:54;;;;;;;6.25;1.20;;;30.50;70.80;;;;;;5051494;28;20106;-70
2022/08/01 12:17:28;;;;;;;4.22;1.20;;;30.50;68.40;;;;;;5037420;28;20515;-70
2022/08/01 12:19:56;;;;;;;3.80;1.40;;;30.20;68.50;;;;;;5055401;28;20060;-70
2022/08/01 12:22:24;;;;;;;4.45;1.35;;;30.40;69.70;;;;;;5037633;28;20048;-70
2022/08/01 12:24:51;;;;;;;4.55;1.23;;;30.80;68.80;;;;;;5055130;28;20049;-71
2022/08/01 12:27:27;;;;;;;2.80;1.08;;;31.00;68.20;;;;;;5055259;28;20121;-71
2022/08/01 12:29:54;;;;;;;2.95;1.08;;;31.10;68.40;;;;;;5054850;28;20083;-70
2022/08/01 12:32:27;;;;;;;4.00;1.20;;;30.80;68.90;;;;;;5037582;28;20063;-71
2022/08/01 12:34:57;;;;;;;6.22;1.33;;;30.70;68.50;;;;;;5055257;28;20451;-69
2022/08/01 12:37:24;;;;;;;4.20;1.35;;;30.10;68.30;;;;;;5054638;28;20148;-69
2022/08/01 12:39:51;;;;;;;7.22;1.85;;;29.70;69.50;;;;;;5037318;28;20470;-69
2022/08/01 12:42:19;;;;;;;4.40;1.27;;;29.70;69.60;;;;;;5037514;28;20542;-70
2022/08/01 12:44:48;;;;;;;5.18;1.10;;;29.80;69.40;;;;;;5054463;28;20053;-70
2022/08/01 12:47:16;;;;;;;3.45;1.17;;;29.90;68.50;;;;;;5036967;28;20065;-70
2022/08/01 12:49:44;;;;;;;5.47;1.80;;;30.20;68.40;;;;;;5054656;28;20084;-70
2022/08/01 12:52:13;;;;;;;2.58;1.08;;;30.50;68.50;;;;;;5055072;28;20087;-69
2022/08/01 12:55:04;;;;;;;9.48;1.25;;;30.30;69.40;;;;;;5037230;28;20325;-69